Time,TemperatureF,DewpointF,PressureIn,WindDirection,WindDirectionDegrees,WindSpeedMPH,WindSpeedGustMPH,Humidity,HourlyPrecipIn,Conditions,Clouds,dailyrainin,SolarRadiationWatts/m^2,SoftwareType,DateUTC
2018-01-20 00:01:00,22.7,18.3,29.76,NNE,18,0.0,0.0,83,0.00,,,0.00,0,WeatherCatV2.44B2,2018-01-20 05:01:00,
2018-01-20 00:06:00,22.7,18.6,29.75,NNE,18,0.0,0.0,84,0.00,,,0.00,0,WeatherCatV2.44B2,2018-01-20 05:06:00,
2018-01-20 00:11:00,22.5,18.4,29.76,NNE,18,0.0,0.0,84,0.00,,,0.00,0,WeatherCatV2.44B2,2018-01-20 05:11:00,
2018-01-20 00:16:00,22.7,18.6,29.76,NNE,18,0.0,0.0,84,0.00,,,0.00,0,WeatherCatV2.44B2,2018-01-20 05:16:00,
2018-01-20 00:21:00,22.8,18.7,29.75,NNE,18,0.0,0.0,84,0.00,,,0.00,0,WeatherCatV2.44B2,2018-01-20 05:21:00,
2018-01-20 00:26:00,22.5,18.1,29.75,NNE,18,0.0,1.0,83,0.00,,,0.00,0,WeatherCatV2.44B2,2018-01-20 05:26:00,
2018-01-20 00:31:00,22.4,18.0,29.75,NNE,18,0.0,0.0,83,0.00,,,0.00,0,WeatherCatV2.44B2,2018-01-20 05:31:00,
2018-01-20 00:36:00,22.2,18.1,29.74,NNE,18,0.0,0.0,84,0.00,,,0.00,0,WeatherCatV2.44B2,2018-01-20 05:36:00,
2018-01-20 00:41:00,22.4,18.6,29.74,NNE,18,0.0,0.0,85,0.00,,,0.00,0,WeatherCatV2.44B2,2018-01-20 05:41:00,
2018-01-20 00:46:00,22.4,18.6,29.73,NNE,18,0.0,0.0,85,0.00,,,0.00,0,WeatherCatV2.44B2,2018-01-20 05:46:00,
2018-01-20 00:51:00,22.6,18.8,29.73,NNE,18,0.0,0.0,85,0.00,,,0.00,0,WeatherCatV2.44B2,2018-01-20 05:51:00,
2018-01-20 00:56:00,22.9,19.1,29.73,NNE,18,0.0,0.0,85,0.00,,,0.00,0,WeatherCatV2.44B2,2018-01-20 05:56:00,
2018-01-20 01:01:00,23.2,19.4,29.72,NNE,18,0.0,0.0,85,0.00,,,0.00,0,WeatherCatV2.44B2,2018-01-20 06:01:00,
2018-01-20 01:06:00,23.3,19.2,29.72,NNE,18,0.0,0.0,84,0.00,,,0.00,0,WeatherCatV2.44B2,2018-01-20 06:06:00,
2018-01-20 01:07:00,23.4,19.0,29.72,NNE,18,0.0,0.0,83,0.00,,,0.00,0,WeatherCatV2.44B2,2018-01-20 06:07:00,
2018-01-20 01:12:00,23.4,19.0,29.72,NNE,18,0.0,0.0,83,0.00,,,0.00,0,WeatherCatV2.44B2,2018-01-20 06:12:00,
2018-01-20 01:17:00,23.3,18.9,29.72,NNE,18,0.0,1.0,83,0.00,,,0.00,0,WeatherCatV2.44B2,2018-01-20 06:17:00,
2018-01-20 01:22:00,23.2,18.8,29.72,NNE,18,0.0,0.0,83,0.00,,,0.00,0,WeatherCatV2.44B2,2018-01-20 06:22:00,
2018-01-20 01:27:00,23.1,18.7,29.72,NNE,18,0.0,0.0,83,0.00,,,0.00,0,WeatherCatV2.44B2,2018-01-20 06:27:00,
2018-01-20 01:32:00,22.9,18.5,29.72,NNE,18,0.0,0.0,83,0.00,,,0.00,0,WeatherCatV2.44B2,2018-01-20 06:32:00,
2018-01-20 01:37:00,22.8,18.7,29.72,NNE,18,0.0,0.0,84,0.00,,,0.00,0,WeatherCatV2.44B2,2018-01-20 06:37:00,
2018-01-20 01:42:00,22.8,18.4,29.73,NNE,18,0.0,0.0,83,0.00,,,0.00,0,WeatherCatV2.44B2,2018-01-20 06:42:00,
2018-01-20 01:47:00,22.7,18.0,29.73,NNE,18,0.0,0.0,82,0.00,,,0.00,0,WeatherCatV2.44B2,2018-01-20 06:47:00,
2018-01-20 01:52:00,22.5,18.1,29.72,NNE,18,0.0,1.0,83,0.00,,,0.00,0,WeatherCatV2.44B2,2018-01-20 06:52:00,
2018-01-20 01:57:00,22.2,17.8,29.71,NNE,18,0.0,0.0,83,0.00,,,0.00,0,WeatherCatV2.44B2,2018-01-20 06:57:00,
2018-01-20 02:02:00,21.9,17.3,29.71,NNE,18,0.0,0.0,82,0.00,,,0.00,0,WeatherCatV2.44B2,2018-01-20 07:02:00,
2018-01-20 02:07:00,21.7,17.1,29.71,NNE,18,0.0,0.0,82,0.00,,,0.00,0,WeatherCatV2.44B2,2018-01-20 07:07:00,
2018-01-20 02:12:00,21.5,17.4,29.71,NNE,18,0.0,0.0,84,0.00,,,0.00,0,WeatherCatV2.44B2,2018-01-20 07:12:00,
2018-01-20 02:17:00,21.4,17.9,29.71,NE,39,1.0,1.0,86,0.00,,,0.00,0,WeatherCatV2.44B2,2018-01-20 07:17:00,
2018-01-20 02:22:00,21.5,18.0,29.70,NE,40,0.0,1.0,86,0.00,,,0.00,0,WeatherCatV2.44B2,2018-01-20 07:22:00,
2018-01-20 02:27:00,21.7,18.4,29.70,NE,34,0.0,0.0,87,0.00,,,0.00,0,WeatherCatV2.44B2,2018-01-20 07:27:00,
2018-01-20 02:32:00,21.6,17.8,29.70,NE,34,0.0,0.0,85,0.00,,,0.00,0,WeatherCatV2.44B2,2018-01-20 07:32:00,
2018-01-20 02:37:00,21.6,17.8,29.70,NE,34,0.0,0.0,85,0.00,,,0.00,0,WeatherCatV2.44B2,2018-01-20 07:37:00,
2018-01-20 02:42:00,21.5,18.0,29.70,NE,34,0.0,0.0,86,0.00,,,0.00,0,WeatherCatV2.44B2,2018-01-20 07:42:00,
2018-01-20 02:47:00,21.8,18.3,29.70,NE,34,0.0,0.0,86,0.00,,,0.00,0,WeatherCatV2.44B2,2018-01-20 07:47:00,
2018-01-20 02:52:00,22.1,18.8,29.70,NE,34,0.0,0.0,87,0.00,,,0.00,0,WeatherCatV2.44B2,2018-01-20 07:52:00,
2018-01-20 02:57:00,22.3,18.8,29.70,NE,34,0.0,1.0,86,0.00,,,0.00,0,WeatherCatV2.44B2,2018-01-20 07:57:00,
2018-01-20 03:02:00,22.4,18.6,29.70,NE,34,0.0,0.0,85,0.00,,,0.00,0,WeatherCatV2.44B2,2018-01-20 08:02:00,
2018-01-20 03:07:00,22.4,18.6,29.70,NE,34,0.0,0.0,85,0.00,,,0.00,0,WeatherCatV2.44B2,2018-01-20 08:07:00,
2018-01-20 03:12:00,22.4,18.6,29.69,NE,34,0.0,0.0,85,0.00,,,0.00,0,WeatherCatV2.44B2,2018-01-20 08:12:00,
2018-01-20 03:17:00,22.5,18.7,29.68,NE,34,0.0,0.0,85,0.00,,,0.00,0,WeatherCatV2.44B2,2018-01-20 08:17:00,
2018-01-20 03:22:00,22.6,18.8,29.68,NE,34,0.0,0.0,85,0.00,,,0.00,0,WeatherCatV2.44B2,2018-01-20 08:22:00,
2018-01-20 03:27:00,22.7,18.9,29.67,NE,34,0.0,0.0,85,0.00,,,0.00,0,WeatherCatV2.44B2,2018-01-20 08:27:00,
2018-01-20 03:32:00,22.9,19.1,29.67,NE,34,0.0,0.0,85,0.00,,,0.00,0,WeatherCatV2.44B2,2018-01-20 08:32:00,
2018-01-20 03:37:00,22.9,18.8,29.67,NE,34,0.0,0.0,84,0.00,,,0.00,0,WeatherCatV2.44B2,2018-01-20 08:37:00,
2018-01-20 03:42:00,22.9,18.8,29.66,NE,34,0.0,0.0,84,0.00,,,0.00,0,WeatherCatV2.44B2,2018-01-20 08:42:00,
2018-01-20 03:48:00,23.0,18.9,29.65,NE,34,0.0,0.0,84,0.00,,,0.00,0,WeatherCatV2.44B2,2018-01-20 08:48:00,
2018-01-20 03:54:00,22.9,18.5,29.64,NE,34,0.0,0.0,83,0.00,,,0.00,0,WeatherCatV2.44B2,2018-01-20 08:54:00,
2018-01-20 03:59:00,22.9,18.5,29.63,NE,34,0.0,0.0,83,0.00,,,0.00,0,WeatherCatV2.44B2,2018-01-20 08:59:00,
2018-01-20 04:04:00,22.8,18.4,29.63,NE,34,0.0,0.0,83,0.00,,,0.00,0,WeatherCatV2.44B2,2018-01-20 09:04:00,
2018-01-20 04:09:00,22.8,18.4,29.63,NE,34,0.0,0.0,83,0.00,,,0.00,0,WeatherCatV2.44B2,2018-01-20 09:09:00,
2018-01-20 04:14:00,22.7,18.3,29.62,NE,34,0.0,0.0,83,0.00,,,0.00,0,WeatherCatV2.44B2,2018-01-20 09:14:00,
2018-01-20 04:20:00,22.4,18.0,29.62,NE,34,0.0,0.0,83,0.00,,,0.00,0,WeatherCatV2.44B2,2018-01-20 09:20:00,
2018-01-20 04:25:00,21.9,17.5,29.62,NE,34,0.0,0.0,83,0.00,,,0.00,0,WeatherCatV2.44B2,2018-01-20 09:25:00,
2018-01-20 04:30:00,21.6,17.5,29.62,NE,34,0.0,0.0,84,0.00,,,0.00,0,WeatherCatV2.44B2,2018-01-20 09:30:00,
2018-01-20 04:35:00,21.5,17.4,29.62,NE,34,0.0,0.0,84,0.00,,,0.00,0,WeatherCatV2.44B2,2018-01-20 09:35:00,
2018-01-20 04:40:00,21.5,17.7,29.62,NE,34,0.0,0.0,85,0.00,,,0.00,0,WeatherCatV2.44B2,2018-01-20 09:40:00,
2018-01-20 04:45:00,21.6,17.8,29.61,NE,34,0.0,0.0,85,0.00,,,0.00,0,WeatherCatV2.44B2,2018-01-20 09:45:00,
2018-01-20 04:50:00,21.6,17.5,29.61,NE,34,0.0,0.0,84,0.00,,,0.00,0,WeatherCatV2.44B2,2018-01-20 09:50:00,
2018-01-20 04:55:00,21.5,17.4,29.60,NE,34,0.0,0.0,84,0.00,,,0.00,0,WeatherCatV2.44B2,2018-01-20 09:55:00,
2018-01-20 05:00:00,21.3,17.2,29.60,NE,34,0.0,0.0,84,0.00,,,0.00,0,WeatherCatV2.44B2,2018-01-20 10:00:00,
2018-01-20 05:05:00,21.3,17.5,29.60,NE,34,0.0,1.0,85,0.00,,,0.00,0,WeatherCatV2.44B2,2018-01-20 10:05:00,
2018-01-20 05:10:00,21.3,17.5,29.60,NE,35,0.0,0.0,85,0.00,,,0.00,0,WeatherCatV2.44B2,2018-01-20 10:10:00,
2018-01-20 05:15:00,21.3,17.8,29.59,NE,35,0.0,0.0,86,0.00,,,0.00,0,WeatherCatV2.44B2,2018-01-20 10:15:00,
2018-01-20 05:20:00,21.5,18.0,29.59,NE,35,0.0,0.0,86,0.00,,,0.00,0,WeatherCatV2.44B2,2018-01-20 10:20:00,
2018-01-20 05:25:00,21.8,18.3,29.59,NE,35,0.0,0.0,86,0.00,,,0.00,0,WeatherCatV2.44B2,2018-01-20 10:25:00,
2018-01-20 05:30:00,21.8,18.0,29.58,NE,35,0.0,0.0,85,0.00,,,0.00,0,WeatherCatV2.44B2,2018-01-20 10:30:00,
2018-01-20 05:35:00,22.0,18.5,29.58,NE,35,0.0,0.0,86,0.00,,,0.00,0,WeatherCatV2.44B2,2018-01-20 10:35:00,
2018-01-20 05:40:00,22.3,18.8,29.58,NE,35,0.0,0.0,86,0.00,,,0.00,0,WeatherCatV2.44B2,2018-01-20 10:40:00,
2018-01-20 05:45:00,22.3,18.5,29.57,NE,35,0.0,0.0,85,0.00,,,0.00,0,WeatherCatV2.44B2,2018-01-20 10:45:00,
2018-01-20 05:50:00,22.5,18.4,29.57,NE,35,0.0,0.0,84,0.00,,,0.00,0,WeatherCatV2.44B2,2018-01-20 10:50:00,
2018-01-20 05:55:00,22.5,18.4,29.56,NE,35,0.0,0.0,84,0.00,,,0.00,0,WeatherCatV2.44B2,2018-01-20 10:55:00,
2018-01-20 06:00:00,22.6,18.5,29.56,NE,35,0.0,0.0,84,0.00,,,0.00,0,WeatherCatV2.44B2,2018-01-20 11:00:00,
2018-01-20 06:05:00,22.7,18.6,29.56,NE,35,0.0,0.0,84,0.00,,,0.00,0,WeatherCatV2.44B2,2018-01-20 11:05:00,
2018-01-20 06:10:00,22.7,18.6,29.56,NE,35,0.0,0.0,84,0.00,,,0.00,0,WeatherCatV2.44B2,2018-01-20 11:10:00,
2018-01-20 06:15:00,22.9,18.8,29.55,NE,35,0.0,0.0,84,0.00,,,0.00,0,WeatherCatV2.44B2,2018-01-20 11:15:00,
2018-01-20 06:20:00,22.8,18.7,29.55,NE,35,0.0,0.0,84,0.00,,,0.00,0,WeatherCatV2.44B2,2018-01-20 11:20:00,
2018-01-20 06:25:00,22.9,18.5,29.55,NE,35,0.0,0.0,83,0.00,,,0.00,0,WeatherCatV2.44B2,2018-01-20 11:25:00,
2018-01-20 06:30:00,22.7,18.6,29.54,NE,35,0.0,0.0,84,0.00,,,0.00,0,WeatherCatV2.44B2,2018-01-20 11:30:00,
2018-01-20 06:35:00,22.8,19.0,29.54,NE,35,0.0,0.0,85,0.00,,,0.00,0,WeatherCatV2.44B2,2018-01-20 11:35:00,
2018-01-20 06:40:00,22.9,18.8,29.54,NE,35,0.0,0.0,84,0.00,,,0.00,0,WeatherCatV2.44B2,2018-01-20 11:40:00,
2018-01-20 06:45:00,22.9,18.8,29.54,NE,35,0.0,0.0,84,0.00,,,0.00,0,WeatherCatV2.44B2,2018-01-20 11:45:00,
2018-01-20 06:50:00,22.9,18.8,29.54,NE,35,0.0,0.0,84,0.00,,,0.00,0,WeatherCatV2.44B2,2018-01-20 11:50:00,
2018-01-20 06:55:00,22.9,18.5,29.53,NE,35,0.0,0.0,83,0.00,,,0.00,0,WeatherCatV2.44B2,2018-01-20 11:55:00,
2018-01-20 07:00:00,22.6,18.2,29.53,NE,35,0.0,0.0,83,0.00,,,0.00,0,WeatherCatV2.44B2,2018-01-20 12:00:00,
2018-01-20 07:05:00,22.4,18.0,29.53,NE,35,0.0,1.0,83,0.00,,,0.00,0,WeatherCatV2.44B2,2018-01-20 12:05:00,
2018-01-20 07:10:00,22.1,18.0,29.53,NNE,28,1.0,2.0,84,0.00,,,0.00,0,WeatherCatV2.44B2,2018-01-20 12:10:00,
2018-01-20 07:15:00,21.8,17.7,29.52,ENE,77,1.0,1.0,84,0.00,,,0.00,0,WeatherCatV2.44B2,2018-01-20 12:15:00,
2018-01-20 07:20:00,21.5,17.4,29.52,SE,130,0.0,0.0,84,0.00,,,0.00,0,WeatherCatV2.44B2,2018-01-20 12:20:00,
2018-01-20 07:25:00,21.1,17.3,29.52,NE,52,1.0,1.0,85,0.00,,,0.00,5,WeatherCatV2.44B2,2018-01-20 12:25:00,
2018-01-20 07:30:00,20.9,17.1,29.52,North,0,1.0,3.0,85,0.00,,,0.00,5,WeatherCatV2.44B2,2018-01-20 12:30:00,
2018-01-20 07:35:00,20.8,17.3,29.51,NE,34,2.0,3.0,86,0.00,,,0.00,7,WeatherCatV2.44B2,2018-01-20 12:35:00,
2018-01-20 07:40:00,20.6,17.1,29.51,SE,138,4.0,4.0,86,0.00,,,0.00,14,WeatherCatV2.44B2,2018-01-20 12:40:00,
2018-01-20 07:45:00,22.3,19.3,29.50,SSE,161,10.0,11.0,88,0.00,,,0.00,23,WeatherCatV2.44B2,2018-01-20 12:45:00,
2018-01-20 07:50:00,27.6,22.8,29.50,NNW,346,2.0,13.0,82,0.00,,,0.00,25,WeatherCatV2.44B2,2018-01-20 12:50:00,
2018-01-20 07:55:00,32.2,24.9,29.50,SW,215,9.0,9.0,74,0.00,,,0.00,28,WeatherCatV2.44B2,2018-01-20 12:55:00,
2018-01-20 08:00:00,35.3,24.7,29.49,South,170,4.0,14.0,65,0.00,,,0.00,35,WeatherCatV2.44B2,2018-01-20 13:00:00,
2018-01-20 08:05:00,37.6,24.6,29.48,SW,221,4.0,17.0,59,0.00,,,0.00,40,WeatherCatV2.44B2,2018-01-20 13:05:00,
2018-01-20 08:10:00,38.2,24.7,29.49,SSW,197,5.0,11.0,58,0.00,,,0.00,44,WeatherCatV2.44B2,2018-01-20 13:10:00,
2018-01-20 08:15:00,38.3,24.4,29.48,SSW,207,10.0,19.0,57,0.00,,,0.00,46,WeatherCatV2.44B2,2018-01-20 13:15:00,
2018-01-20 08:20:00,38.5,23.8,29.48,South,174,7.0,17.0,55,0.00,,,0.00,62,WeatherCatV2.44B2,2018-01-20 13:20:00,
2018-01-20 08:25:00,38.6,23.9,29.48,SSW,194,9.0,16.0,55,0.00,,,0.00,72,WeatherCatV2.44B2,2018-01-20 13:25:00,
2018-01-20 08:30:00,38.7,24.4,29.49,SW,218,4.0,14.0,56,0.00,,,0.00,83,WeatherCatV2.44B2,2018-01-20 13:30:00,
2018-01-20 08:35:00,38.5,24.6,29.49,South,175,10.0,15.0,57,0.00,,,0.00,79,WeatherCatV2.44B2,2018-01-20 13:35:00,
2018-01-20 08:40:00,38.4,24.1,29.50,SSW,211,12.0,18.0,56,0.00,,,0.00,77,WeatherCatV2.44B2,2018-01-20 13:40:00,
2018-01-20 08:45:00,38.1,24.2,29.49,South,185,6.0,18.0,57,0.00,,,0.00,58,WeatherCatV2.44B2,2018-01-20 13:45:00,
2018-01-20 08:50:00,38.1,23.8,29.50,SSW,205,10.0,23.0,56,0.00,,,0.00,44,WeatherCatV2.44B2,2018-01-20 13:50:00,
2018-01-20 08:55:00,38.2,23.9,29.49,SSW,196,9.0,13.0,56,0.00,,,0.00,70,WeatherCatV2.44B2,2018-01-20 13:55:00,
2018-01-20 09:00:00,38.1,23.8,29.49,South,172,8.0,14.0,56,0.00,,,0.00,109,WeatherCatV2.44B2,2018-01-20 14:00:00,
2018-01-20 09:05:00,38.3,24.0,29.48,SSE,159,14.0,27.0,56,0.00,,,0.00,74,WeatherCatV2.44B2,2018-01-20 14:05:00,
2018-01-20 09:10:00,38.6,24.7,29.48,SW,217,4.0,19.0,57,0.00,,,0.00,70,WeatherCatV2.44B2,2018-01-20 14:10:00,
2018-01-20 09:15:00,38.8,24.9,29.48,South,171,13.0,15.0,57,0.00,,,0.00,56,WeatherCatV2.44B2,2018-01-20 14:15:00,
2018-01-20 09:20:00,38.8,24.9,29.48,SE,138,6.0,16.0,57,0.00,,,0.00,88,WeatherCatV2.44B2,2018-01-20 14:20:00,
2018-01-20 09:25:00,38.9,24.1,29.47,SSW,200,5.0,21.0,55,0.00,,,0.00,58,WeatherCatV2.44B2,2018-01-20 14:25:00,
2018-01-20 09:30:00,39.0,25.5,29.49,WSW,244,4.0,18.0,58,0.00,,,0.00,70,WeatherCatV2.44B2,2018-01-20 14:30:00,
2018-01-20 09:35:00,39.3,25.4,29.49,SSE,162,9.0,15.0,57,0.00,,,0.00,123,WeatherCatV2.44B2,2018-01-20 14:35:00,
2018-01-20 09:40:00,39.6,24.8,29.47,ESE,114,14.0,19.0,55,0.00,,,0.00,162,WeatherCatV2.44B2,2018-01-20 14:40:00,
2018-01-20 09:45:00,40.1,25.2,29.47,NNW,343,9.0,14.0,55,0.00,,,0.00,214,WeatherCatV2.44B2,2018-01-20 14:45:00,
2018-01-20 09:50:00,40.2,25.3,29.48,SE,143,7.0,18.0,55,0.00,,,0.00,176,WeatherCatV2.44B2,2018-01-20 14:50:00,
2018-01-20 09:55:00,40.1,25.2,29.48,ENE,65,17.0,18.0,55,0.00,,,0.00,209,WeatherCatV2.44B2,2018-01-20 14:55:00,
2018-01-20 10:00:00,39.9,25.5,29.50,South,184,7.0,16.0,56,0.00,,,0.00,209,WeatherCatV2.44B2,2018-01-20 15:00:00,
2018-01-20 10:05:00,40.2,25.8,29.50,SSW,192,6.0,14.0,56,0.00,,,0.00,353,WeatherCatV2.44B2,2018-01-20 15:05:00,
2018-01-20 10:10:00,40.6,25.7,29.49,SSE,151,9.0,19.0,55,0.00,,,0.00,366,WeatherCatV2.44B2,2018-01-20 15:10:00,
2018-01-20 10:15:00,40.6,25.3,29.50,South,172,30.0,30.0,54,0.00,,,0.00,362,WeatherCatV2.44B2,2018-01-20 15:15:00,
2018-01-20 10:20:00,40.9,25.1,29.50,SW,225,9.0,18.0,53,0.00,,,0.00,378,WeatherCatV2.44B2,2018-01-20 15:20:00,
2018-01-20 10:25:00,41.0,25.6,29.51,South,189,4.0,18.0,54,0.00,,,0.00,388,WeatherCatV2.44B2,2018-01-20 15:25:00,
2018-01-20 10:30:00,41.0,25.6,29.50,SSE,159,8.0,16.0,54,0.00,,,0.00,394,WeatherCatV2.44B2,2018-01-20 15:30:00,
2018-01-20 10:35:00,40.9,26.0,29.51,WNW,297,6.0,18.0,55,0.00,,,0.00,408,WeatherCatV2.44B2,2018-01-20 15:35:00,
2018-01-20 10:40:00,41.0,26.1,29.52,South,170,10.0,16.0,55,0.00,,,0.00,411,WeatherCatV2.44B2,2018-01-20 15:40:00,
2018-01-20 10:45:00,41.2,25.8,29.51,SSE,167,16.0,16.0,54,0.00,,,0.00,415,WeatherCatV2.44B2,2018-01-20 15:45:00,
2018-01-20 10:50:00,41.5,26.1,29.52,South,183,16.0,16.0,54,0.00,,,0.00,418,WeatherCatV2.44B2,2018-01-20 15:50:00,
2018-01-20 10:55:00,41.4,26.5,29.52,SSE,164,5.0,15.0,55,0.00,,,0.00,424,WeatherCatV2.44B2,2018-01-20 15:55:00,
2018-01-20 11:00:00,41.8,26.8,29.53,North,5,3.0,15.0,55,0.00,,,0.00,427,WeatherCatV2.44B2,2018-01-20 16:00:00,
2018-01-20 11:05:00,41.8,26.8,29.53,South,182,6.0,14.0,55,0.00,,,0.00,431,WeatherCatV2.44B2,2018-01-20 16:05:00,
2018-01-20 11:10:00,42.0,27.0,29.53,SSE,154,11.0,15.0,55,0.00,,,0.00,436,WeatherCatV2.44B2,2018-01-20 16:10:00,
2018-01-20 11:15:00,42.1,27.1,29.53,SSW,208,3.0,14.0,55,0.00,,,0.00,441,WeatherCatV2.44B2,2018-01-20 16:15:00,
2018-01-20 11:20:00,42.4,27.0,29.52,ENE,71,6.0,13.0,54,0.00,,,0.00,445,WeatherCatV2.44B2,2018-01-20 16:20:00,
2018-01-20 11:25:00,42.3,27.3,29.53,South,184,6.0,13.0,55,0.00,,,0.00,454,WeatherCatV2.44B2,2018-01-20 16:25:00,
2018-01-20 11:30:00,42.5,27.5,29.53,SSE,153,6.0,14.0,55,0.00,,,0.00,457,WeatherCatV2.44B2,2018-01-20 16:30:00,
2018-01-20 11:35:00,42.6,27.6,29.53,North,5,5.0,9.0,55,0.00,,,0.00,448,WeatherCatV2.44B2,2018-01-20 16:35:00,
2018-01-20 11:40:00,42.6,27.6,29.53,WNW,284,14.0,14.0,55,0.00,,,0.00,438,WeatherCatV2.44B2,2018-01-20 16:40:00,
2018-01-20 11:45:00,42.6,27.6,29.53,South,182,6.0,11.0,55,0.00,,,0.00,418,WeatherCatV2.44B2,2018-01-20 16:45:00,
2018-01-20 11:50:00,42.5,27.5,29.54,South,191,13.0,16.0,55,0.00,,,0.00,420,WeatherCatV2.44B2,2018-01-20 16:50:00,
2018-01-20 11:55:00,42.7,27.7,29.53,WSW,245,3.0,10.0,55,0.00,,,0.00,466,WeatherCatV2.44B2,2018-01-20 16:55:00,
2018-01-20 12:00:00,43.1,27.6,29.53,ENE,69,3.0,9.0,54,0.00,,,0.00,462,WeatherCatV2.44B2,2018-01-20 17:00:00,
2018-01-20 12:05:00,43.3,27.8,29.53,WSW,252,7.0,10.0,54,0.00,,,0.00,461,WeatherCatV2.44B2,2018-01-20 17:05:00,
2018-01-20 12:10:00,43.2,27.7,29.54,SE,144,5.0,10.0,54,0.00,,,0.00,353,WeatherCatV2.44B2,2018-01-20 17:10:00,
2018-01-20 12:15:00,43.1,28.0,29.54,SW,228,3.0,14.0,55,0.00,,,0.00,396,WeatherCatV2.44B2,2018-01-20 17:15:00,
2018-01-20 12:20:00,42.9,27.4,29.54,SE,138,1.0,6.0,54,0.00,,,0.00,332,WeatherCatV2.44B2,2018-01-20 17:20:00,
2018-01-20 12:25:00,42.8,28.2,29.54,South,169,2.0,12.0,56,0.00,,,0.00,299,WeatherCatV2.44B2,2018-01-20 17:25:00,
2018-01-20 12:30:00,42.4,27.8,29.54,North,355,3.0,7.0,56,0.00,,,0.00,278,WeatherCatV2.44B2,2018-01-20 17:30:00,
2018-01-20 12:35:00,42.3,28.2,29.54,SSE,155,2.0,4.0,57,0.00,,,0.00,251,WeatherCatV2.44B2,2018-01-20 17:35:00,
2018-01-20 12:40:00,42.2,28.1,29.54,South,173,3.0,11.0,57,0.00,,,0.00,276,WeatherCatV2.44B2,2018-01-20 17:40:00,
2018-01-20 12:45:00,42.4,28.3,29.54,South,180,5.0,9.0,57,0.00,,,0.00,285,WeatherCatV2.44B2,2018-01-20 17:45:00,
2018-01-20 12:50:00,42.3,27.7,29.55,South,190,3.0,15.0,56,0.00,,,0.00,283,WeatherCatV2.44B2,2018-01-20 17:50:00,
2018-01-20 12:55:00,42.2,28.1,29.55,South,170,2.0,7.0,57,0.00,,,0.00,267,WeatherCatV2.44B2,2018-01-20 17:55:00,
2018-01-20 13:00:00,42.2,27.6,29.56,SSW,209,3.0,9.0,56,0.00,,,0.00,264,WeatherCatV2.44B2,2018-01-20 18:00:00,
2018-01-20 13:05:00,42.2,28.5,29.55,SSE,157,4.0,7.0,58,0.00,,,0.00,227,WeatherCatV2.44B2,2018-01-20 18:05:00,
2018-01-20 13:10:00,42.1,28.4,29.55,SE,146,2.0,7.0,58,0.00,,,0.00,232,WeatherCatV2.44B2,2018-01-20 18:10:00,
2018-01-20 13:15:00,41.8,28.1,29.55,ESE,111,3.0,13.0,58,0.00,,,0.00,244,WeatherCatV2.44B2,2018-01-20 18:15:00,
2018-01-20 13:20:00,41.9,28.2,29.56,SSW,194,2.0,6.0,58,0.00,,,0.00,288,WeatherCatV2.44B2,2018-01-20 18:20:00,
2018-01-20 13:25:00,42.4,28.3,29.56,SSW,198,4.0,12.0,57,0.00,,,0.00,362,WeatherCatV2.44B2,2018-01-20 18:25:00,
2018-01-20 13:30:00,42.7,28.1,29.56,ESE,103,1.0,8.0,56,0.00,,,0.00,380,WeatherCatV2.44B2,2018-01-20 18:30:00,
2018-01-20 13:35:00,43.0,28.4,29.57,ESE,109,1.0,6.0,56,0.00,,,0.00,329,WeatherCatV2.44B2,2018-01-20 18:35:00,
2018-01-20 13:40:00,43.1,28.5,29.57,ESE,122,1.0,7.0,56,0.00,,,0.00,292,WeatherCatV2.44B2,2018-01-20 18:40:00,
2018-01-20 13:45:00,42.8,28.2,29.58,SSE,153,6.0,13.0,56,0.00,,,0.00,200,WeatherCatV2.44B2,2018-01-20 18:45:00,
2018-01-20 13:50:00,42.2,28.9,29.58,South,185,3.0,5.0,59,0.00,,,0.00,178,WeatherCatV2.44B2,2018-01-20 18:50:00,
2018-01-20 13:55:00,42.2,28.1,29.58,East,97,3.0,8.0,57,0.00,,,0.00,246,WeatherCatV2.44B2,2018-01-20 18:55:00,
2018-01-20 14:00:00,42.2,28.1,29.58,South,171,4.0,7.0,57,0.00,,,0.00,204,WeatherCatV2.44B2,2018-01-20 19:00:00,
2018-01-20 14:05:00,41.8,28.1,29.58,SW,218,4.0,5.0,58,0.00,,,0.00,69,WeatherCatV2.44B2,2018-01-20 19:05:00,
2018-01-20 14:10:00,41.6,28.4,29.58,East,95,2.0,9.0,59,0.00,,,0.00,70,WeatherCatV2.44B2,2018-01-20 19:10:00,
2018-01-20 14:15:00,41.0,27.8,29.59,SSW,198,4.0,12.0,59,0.00,,,0.00,58,WeatherCatV2.44B2,2018-01-20 19:15:00,
2018-01-20 14:20:00,40.8,28.0,29.60,SE,127,6.0,9.0,60,0.00,,,0.00,65,WeatherCatV2.44B2,2018-01-20 19:20:00,
2018-01-20 14:25:00,40.6,27.8,29.60,SSE,155,3.0,6.0,60,0.00,,,0.00,121,WeatherCatV2.44B2,2018-01-20 19:25:00,
2018-01-20 14:30:00,40.5,27.7,29.60,NNW,344,3.0,11.0,60,0.00,,,0.00,65,WeatherCatV2.44B2,2018-01-20 19:30:00,
2018-01-20 14:35:00,40.5,27.3,29.61,SSW,193,1.0,13.0,59,0.00,,,0.00,58,WeatherCatV2.44B2,2018-01-20 19:35:00,
2018-01-20 14:40:00,40.5,27.7,29.61,SE,133,9.0,10.0,60,0.00,,,0.00,60,WeatherCatV2.44B2,2018-01-20 19:40:00,
2018-01-20 14:45:00,40.5,27.7,29.63,East,82,6.0,10.0,60,0.00,,,0.00,144,WeatherCatV2.44B2,2018-01-20 19:45:00,
2018-01-20 14:50:00,40.6,28.2,29.61,SE,142,4.0,6.0,61,0.00,,,0.00,98,WeatherCatV2.44B2,2018-01-20 19:50:00,
2018-01-20 14:55:00,40.4,27.6,29.61,SSW,208,6.0,9.0,60,0.00,,,0.00,107,WeatherCatV2.44B2,2018-01-20 19:55:00,
2018-01-20 15:00:00,40.2,27.4,29.61,SSW,211,4.0,11.0,60,0.00,,,0.00,47,WeatherCatV2.44B2,2018-01-20 20:00:00,
2018-01-20 15:05:00,39.9,27.6,29.62,SSE,155,5.0,7.0,61,0.00,,,0.00,53,WeatherCatV2.44B2,2018-01-20 20:05:00,
2018-01-20 15:10:00,39.8,28.2,29.63,SW,233,1.0,3.0,63,0.00,,,0.00,51,WeatherCatV2.44B2,2018-01-20 20:10:00,
2018-01-20 15:15:00,39.6,27.7,29.64,SE,146,4.0,5.0,62,0.00,,,0.00,56,WeatherCatV2.44B2,2018-01-20 20:15:00,
2018-01-20 15:20:00,39.3,27.8,29.63,East,84,2.0,11.0,63,0.00,,,0.00,37,WeatherCatV2.44B2,2018-01-20 20:20:00,
2018-01-20 15:25:00,39.3,27.8,29.64,NE,49,0.0,4.0,63,0.00,,,0.00,35,WeatherCatV2.44B2,2018-01-20 20:25:00,
2018-01-20 15:30:00,39.2,27.7,29.63,NNW,340,3.0,17.0,63,0.00,,,0.00,23,WeatherCatV2.44B2,2018-01-20 20:30:00,
2018-01-20 15:35:00,39.1,28.0,29.64,SSW,197,4.0,11.0,64,0.00,,,0.00,23,WeatherCatV2.44B2,2018-01-20 20:35:00,
2018-01-20 15:40:00,38.9,27.8,29.66,South,172,9.0,11.0,64,0.00,,,0.00,23,WeatherCatV2.44B2,2018-01-20 20:40:00,
2018-01-20 15:45:00,38.9,27.8,29.66,SE,142,3.0,6.0,64,0.00,,,0.00,19,WeatherCatV2.44B2,2018-01-20 20:45:00,
2018-01-20 15:50:00,38.8,27.7,29.66,SSW,192,1.0,10.0,64,0.00,,,0.00,14,WeatherCatV2.44B2,2018-01-20 20:50:00,
2018-01-20 15:55:00,38.8,28.1,29.67,South,178,2.0,3.0,65,0.00,,,0.00,12,WeatherCatV2.44B2,2018-01-20 20:55:00,
2018-01-20 16:00:00,38.6,27.9,29.67,SSE,161,1.0,5.0,65,0.00,,,0.00,11,WeatherCatV2.44B2,2018-01-20 21:00:00,
2018-01-20 16:05:00,38.6,27.9,29.68,NE,47,1.0,6.0,65,0.00,,,0.00,9,WeatherCatV2.44B2,2018-01-20 21:05:00,
2018-01-20 16:10:00,38.5,27.8,29.67,NE,46,1.0,9.0,65,0.00,,,0.00,7,WeatherCatV2.44B2,2018-01-20 21:10:00,
2018-01-20 16:15:00,38.5,27.0,29.67,NW,324,1.0,15.0,63,0.00,,,0.00,7,WeatherCatV2.44B2,2018-01-20 21:15:00,
2018-01-20 16:20:00,38.6,27.5,29.67,SSW,203,7.0,7.0,64,0.00,,,0.00,5,WeatherCatV2.44B2,2018-01-20 21:20:00,
2018-01-20 16:25:00,38.6,27.5,29.67,SSE,168,4.0,7.0,64,0.00,,,0.00,5,WeatherCatV2.44B2,2018-01-20 21:25:00,
2018-01-20 16:30:00,38.4,27.3,29.68,SW,214,3.0,7.0,64,0.00,,,0.00,0,WeatherCatV2.44B2,2018-01-20 21:30:00,
2018-01-20 16:35:00,38.4,26.9,29.67,SSW,192,3.0,19.0,63,0.00,,,0.00,0,WeatherCatV2.44B2,2018-01-20 21:35:00,
2018-01-20 16:40:00,38.5,26.6,29.68,SE,144,7.0,18.0,62,0.00,,,0.00,0,WeatherCatV2.44B2,2018-01-20 21:40:00,
2018-01-20 16:45:00,38.4,26.9,29.68,NW,305,3.0,10.0,63,0.00,,,0.00,0,WeatherCatV2.44B2,2018-01-20 21:45:00,
2018-01-20 16:50:00,38.4,26.5,29.68,SSE,163,4.0,16.0,62,0.00,,,0.00,0,WeatherCatV2.44B2,2018-01-20 21:50:00,
2018-01-20 16:55:00,38.3,26.8,29.67,South,172,6.0,14.0,63,0.00,,,0.00,0,WeatherCatV2.44B2,2018-01-20 21:55:00,
2018-01-20 17:00:00,38.2,26.7,29.68,SW,221,4.0,10.0,63,0.00,,,0.00,0,WeatherCatV2.44B2,2018-01-20 22:00:00,
2018-01-20 17:05:00,38.0,26.5,29.69,SSE,165,7.0,13.0,63,0.00,,,0.00,0,WeatherCatV2.44B2,2018-01-20 22:05:00,
2018-01-20 17:10:00,38.2,27.1,29.70,South,184,4.0,10.0,64,0.00,,,0.00,0,WeatherCatV2.44B2,2018-01-20 22:10:00,
2018-01-20 17:15:00,38.1,27.0,29.70,SE,129,9.0,18.0,64,0.00,,,0.00,0,WeatherCatV2.44B2,2018-01-20 22:15:00,
2018-01-20 17:20:00,38.1,27.0,29.70,NNW,338,3.0,11.0,64,0.00,,,0.00,0,WeatherCatV2.44B2,2018-01-20 22:20:00,
2018-01-20 17:25:00,37.9,26.8,29.70,South,182,6.0,13.0,64,0.00,,,0.00,0,WeatherCatV2.44B2,2018-01-20 22:25:00,
2018-01-20 17:30:00,37.9,26.1,29.69,SW,219,7.0,15.0,62,0.00,,,0.00,0,WeatherCatV2.44B2,2018-01-20 22:30:00,
2018-01-20 17:35:00,37.9,26.5,29.72,South,186,8.0,11.0,63,0.00,,,0.00,0,WeatherCatV2.44B2,2018-01-20 22:35:00,
2018-01-20 17:40:00,37.8,26.4,29.72,South,173,6.0,11.0,63,0.00,,,0.00,0,WeatherCatV2.44B2,2018-01-20 22:40:00,
2018-01-20 17:45:00,37.7,26.6,29.72,SSE,153,6.0,15.0,64,0.00,,,0.00,0,WeatherCatV2.44B2,2018-01-20 22:45:00,
2018-01-20 17:50:00,37.7,26.3,29.72,South,180,10.0,10.0,63,0.00,,,0.00,0,WeatherCatV2.44B2,2018-01-20 22:50:00,
2018-01-20 17:55:00,37.9,26.1,29.72,SSE,165,9.0,12.0,62,0.00,,,0.00,0,WeatherCatV2.44B2,2018-01-20 22:55:00,
2018-01-20 18:00:00,37.8,26.4,29.73,South,175,12.0,15.0,63,0.00,,,0.00,0,WeatherCatV2.44B2,2018-01-20 23:00:00,
2018-01-20 18:05:00,37.9,26.5,29.73,SSE,167,11.0,16.0,63,0.00,,,0.00,0,WeatherCatV2.44B2,2018-01-20 23:05:00,
2018-01-20 18:10:00,37.8,26.0,29.73,SSW,200,9.0,17.0,62,0.00,,,0.00,0,WeatherCatV2.44B2,2018-01-20 23:10:00,
2018-01-20 18:15:00,37.8,26.0,29.73,SW,228,4.0,13.0,62,0.00,,,0.00,0,WeatherCatV2.44B2,2018-01-20 23:15:00,
2018-01-20 18:20:00,37.9,26.1,29.74,South,171,10.0,11.0,62,0.00,,,0.00,0,WeatherCatV2.44B2,2018-01-20 23:20:00,
2018-01-20 18:25:00,37.8,26.4,29.75,SSE,163,7.0,13.0,63,0.00,,,0.00,0,WeatherCatV2.44B2,2018-01-20 23:25:00,
2018-01-20 18:30:00,37.7,26.6,29.74,SSW,210,3.0,15.0,64,0.00,,,0.00,0,WeatherCatV2.44B2,2018-01-20 23:30:00,
2018-01-20 18:35:00,37.7,26.6,29.74,SSE,149,9.0,15.0,64,0.00,,,0.00,0,WeatherCatV2.44B2,2018-01-20 23:35:00,
2018-01-20 18:40:00,37.5,26.5,29.74,SE,132,6.0,10.0,64,0.00,,,0.00,0,WeatherCatV2.44B2,2018-01-20 23:40:00,
2018-01-20 18:45:00,37.6,26.2,29.75,SSW,213,5.0,13.0,63,0.00,,,0.00,0,WeatherCatV2.44B2,2018-01-20 23:45:00,
2018-01-20 18:50:00,37.6,26.5,29.75,South,185,14.0,14.0,64,0.00,,,0.00,0,WeatherCatV2.44B2,2018-01-20 23:50:00,
2018-01-20 18:55:00,37.6,26.5,29.75,SSW,198,11.0,13.0,64,0.00,,,0.00,0,WeatherCatV2.44B2,2018-01-20 23:55:00,
2018-01-20 19:00:00,37.9,26.5,29.75,South,178,5.0,10.0,63,0.00,,,0.00,0,WeatherCatV2.44B2,2018-01-21 00:00:00,
2018-01-20 19:05:00,37.8,26.4,29.75,SSW,199,6.0,12.0,63,0.00,,,0.00,0,WeatherCatV2.44B2,2018-01-21 00:05:00,
2018-01-20 19:10:00,37.8,26.7,29.75,WNW,292,9.0,16.0,64,0.00,,,0.00,0,WeatherCatV2.44B2,2018-01-21 00:10:00,
2018-01-20 19:15:00,37.9,26.5,29.75,SSE,165,6.0,13.0,63,0.00,,,0.00,0,WeatherCatV2.44B2,2018-01-21 00:15:00,
2018-01-20 19:20:00,37.7,26.6,29.76,South,178,9.0,10.0,64,0.00,,,0.00,0,WeatherCatV2.44B2,2018-01-21 00:20:00,
2018-01-20 19:25:00,37.6,26.9,29.75,SSW,202,5.0,14.0,65,0.00,,,0.00,0,WeatherCatV2.44B2,2018-01-21 00:25:00,
2018-01-20 19:31:00,37.6,26.9,29.75,South,191,10.0,16.0,65,0.00,,,0.00,0,WeatherCatV2.44B2,2018-01-21 00:31:00,
2018-01-20 19:36:00,37.5,26.8,29.75,SSE,161,2.0,12.0,65,0.00,,,0.00,0,WeatherCatV2.44B2,2018-01-21 00:36:00,
2018-01-20 19:41:00,37.6,26.9,29.75,SSW,201,2.0,10.0,65,0.00,,,0.00,0,WeatherCatV2.44B2,2018-01-21 00:41:00,
2018-01-20 19:46:00,37.7,26.3,29.75,South,186,7.0,16.0,63,0.00,,,0.00,0,WeatherCatV2.44B2,2018-01-21 00:46:00,
2018-01-20 19:51:00,37.9,26.1,29.74,SE,143,1.0,9.0,62,0.00,,,0.00,0,WeatherCatV2.44B2,2018-01-21 00:51:00,
2018-01-20 19:56:00,38.1,25.9,29.74,SSW,202,4.0,12.0,61,0.00,,,0.00,0,WeatherCatV2.44B2,2018-01-21 00:56:00,
2018-01-20 20:01:00,38.1,26.2,29.73,SE,146,7.0,11.0,62,0.00,,,0.00,0,WeatherCatV2.44B2,2018-01-21 01:01:00,
2018-01-20 20:06:00,38.2,26.3,29.73,SSE,166,13.0,13.0,62,0.00,,,0.00,0,WeatherCatV2.44B2,2018-01-21 01:06:00,
2018-01-20 20:11:00,38.2,26.0,29.75,WNW,283,8.0,20.0,61,0.00,,,0.00,0,WeatherCatV2.44B2,2018-01-21 01:11:00,
2018-01-20 20:16:00,38.4,26.1,29.75,SW,219,10.0,13.0,61,0.00,,,0.00,0,WeatherCatV2.44B2,2018-01-21 01:16:00,
2018-01-20 20:21:00,38.3,26.4,29.74,NE,38,4.0,7.0,62,0.00,,,0.00,0,WeatherCatV2.44B2,2018-01-21 01:21:00,
2018-01-20 20:26:00,38.1,26.6,29.76,South,173,4.0,6.0,63,0.00,,,0.00,0,WeatherCatV2.44B2,2018-01-21 01:26:00,
2018-01-20 20:31:00,38.1,26.6,29.76,SSE,157,7.0,17.0,63,0.00,,,0.00,0,WeatherCatV2.44B2,2018-01-21 01:31:00,
2018-01-20 20:36:00,38.2,26.3,29.75,West,265,4.0,14.0,62,0.00,,,0.00,0,WeatherCatV2.44B2,2018-01-21 01:36:00,
2018-01-20 20:41:00,38.2,26.7,29.76,South,182,7.0,15.0,63,0.00,,,0.00,0,WeatherCatV2.44B2,2018-01-21 01:41:00,
2018-01-20 20:46:00,38.2,26.7,29.77,South,169,8.0,15.0,63,0.00,,,0.00,0,WeatherCatV2.44B2,2018-01-21 01:46:00,
2018-01-20 20:51:00,38.2,26.7,29.77,South,178,5.0,7.0,63,0.00,,,0.00,0,WeatherCatV2.44B2,2018-01-21 01:51:00,
2018-01-20 20:56:00,38.1,27.0,29.77,South,184,5.0,15.0,64,0.00,,,0.00,0,WeatherCatV2.44B2,2018-01-21 01:56:00,
2018-01-20 21:01:00,38.1,27.0,29.77,SW,224,6.0,10.0,64,0.00,,,0.00,0,WeatherCatV2.44B2,2018-01-21 02:01:00,
2018-01-20 21:06:00,38.2,27.1,29.77,South,180,3.0,13.0,64,0.00,,,0.00,0,WeatherCatV2.44B2,2018-01-21 02:06:00,
2018-01-20 21:11:00,38.3,26.8,29.77,South,183,7.0,17.0,63,0.00,,,0.00,0,WeatherCatV2.44B2,2018-01-21 02:11:00,
2018-01-20 21:16:00,38.4,26.9,29.78,SSE,149,1.0,18.0,63,0.00,,,0.00,0,WeatherCatV2.44B2,2018-01-21 02:16:00,
2018-01-20 21:21:00,38.4,26.9,29.79,SSE,155,12.0,16.0,63,0.00,,,0.00,0,WeatherCatV2.44B2,2018-01-21 02:21:00,
2018-01-20 21:26:00,38.4,27.3,29.78,South,169,4.0,11.0,64,0.00,,,0.00,0,WeatherCatV2.44B2,2018-01-21 02:26:00,
2018-01-20 21:31:00,38.2,27.1,29.78,NW,317,3.0,6.0,64,0.00,,,0.00,0,WeatherCatV2.44B2,2018-01-21 02:31:00,
2018-01-20 21:36:00,38.0,26.9,29.78,SSW,213,2.0,11.0,64,0.00,,,0.00,0,WeatherCatV2.44B2,2018-01-21 02:36:00,
2018-01-20 21:41:00,38.1,27.0,29.78,WSW,242,3.0,12.0,64,0.00,,,0.00,0,WeatherCatV2.44B2,2018-01-21 02:41:00,
2018-01-20 21:47:00,38.1,27.0,29.78,South,183,4.0,11.0,64,0.00,,,0.00,0,WeatherCatV2.44B2,2018-01-21 02:47:00,
2018-01-20 21:52:00,37.9,27.2,29.78,South,185,3.0,16.0,65,0.00,,,0.00,0,WeatherCatV2.44B2,2018-01-21 02:52:00,
2018-01-20 21:57:00,38.0,27.3,29.78,South,171,6.0,13.0,65,0.00,,,0.00,0,WeatherCatV2.44B2,2018-01-21 02:57:00,
2018-01-20 22:02:00,38.0,26.9,29.78,SSE,165,6.0,11.0,64,0.00,,,0.00,0,WeatherCatV2.44B2,2018-01-21 03:02:00,
2018-01-20 22:07:00,37.9,27.2,29.79,South,187,4.0,17.0,65,0.00,,,0.00,0,WeatherCatV2.44B2,2018-01-21 03:07:00,
2018-01-20 22:12:00,37.7,27.0,29.78,South,182,4.0,12.0,65,0.00,,,0.00,0,WeatherCatV2.44B2,2018-01-21 03:12:00,
2018-01-20 22:18:00,38.0,26.9,29.79,SE,142,5.0,6.0,64,0.00,,,0.00,0,WeatherCatV2.44B2,2018-01-21 03:18:00,